Terminal Aerodrome Forecast
Issued by NWS Upton, NY

Home | Current Version | Previous Version | Text Only | Print | Product List | Glossary On
Versions: 1 2 3 4 5 6 7 8 9 10 11 12 13 14 15 16 17 18 19 20 21 22 23 24 25 26 27 28
000
FTUS41 KOKX 110546
TAFISP
TAF
KISP 110546Z 1106/1206 28005KT P6SM FEW050
     FM111200 28005KT P6SM OVC120
     FM111600 23004KT P6SM SCT040 OVC060
     FM112200 20008KT 3SM -SN BR SCT025 OVC035
     FM120100 18005KT 2SM -SN BR SCT015 OVC025=

USA.gov is the U.S. government's official web portal to all federal, state and local government web resources and services.